M I D A S
Marine Information and Data Acquisition System
Tripno 411 of the Zeeleeuw from 2003-01-08 07:41:15 to 2003-01-08 14:00:47
Back to CruiseResearch ActivitiesStationsMapUnderway DataData graphs

EquipmentUnitsComment
TimeDGPSUTC
LatitudeDGPSDM.mWGS84
LongitudeDGPSDM.mWGS84
HeadingGyrodeg 
SOGDGPSknotsSpeed over ground
COGDGPSdegCourse over ground
DepthEcho soundermeters200 kHz
Missing or incorrect values are displayed as -999
Navigation data collected by the RV Zeeleeuw from 2003-01-08 07:41:15 to 2003-01-08 14:00:47
                                                                                    Next 1000 lines
Time Latitude Longitude Heading SOG COG Depth
2003-01-08 07:41:23 51°13.635 2°55.976 117.3 4.2 296.1 -999
2003-01-08 07:41:27 51°13.637 2°55.969 117 4.2 295.6 -999
2003-01-08 07:41:33 51°13.64 2°55.959 116.8 4.2 295.6 -999
2003-01-08 07:41:38 51°13.642 2°55.951 116.7 4.2 295.1 -999
2003-01-08 07:41:43 51°13.645 2°55.942 116.5 4.3 294.9 -999
2003-01-08 07:41:47 51°13.647 2°55.935 116.5 4.3 295 -999
2003-01-08 07:41:53 51°13.65 2°55.925 116.5 4.3 295.2 -999
2003-01-08 07:41:58 51°13.653 2°55.916 116.5 4.3 295.2 -999
2003-01-08 07:42:03 51°13.655 2°55.907 116.3 4.3 295.1 -999
2003-01-08 07:42:07 51°13.657 2°55.9 116.2 4.3 295 -999
2003-01-08 07:42:13 51°13.66 2°55.89 115.7 4.3 294.7 -999
2003-01-08 07:42:18 51°13.662 2°55.881 115.2 4.3 294.8 -999
2003-01-08 07:42:23 51°13.665 2°55.872 114.3 4.3 294.5 -999
2003-01-08 07:42:27 51°13.667 2°55.865 113.3 4.3 294.1 -999
2003-01-08 07:42:33 51°13.67 2°55.855 112.5 4.3 293.3 -999
2003-01-08 07:42:37 51°13.671 2°55.848 111.5 4.2 292.4 -999
2003-01-08 07:42:43 51°13.674 2°55.838 110.7 4.1 291.8 -999
2003-01-08 07:42:47 51°13.675 2°55.832 109.7 4 291.3 -999
2003-01-08 07:42:53 51°13.678 2°55.822 108.5 4 290.9 -999
2003-01-08 07:42:57 51°13.679 2°55.816 107.3 3.9 290.2 -999
2003-01-08 07:43:03 51°13.681 2°55.806 106.3 3.8 289.6 -999
2003-01-08 07:43:07 51°13.683 2°55.8 105 3.8 288.8 -999
2003-01-08 07:43:13 51°13.685 2°55.79 103.7 3.7 287.9 -999
2003-01-08 07:43:17 51°13.686 2°55.784 102.2 3.6 286.9 -999
2003-01-08 07:43:23 51°13.687 2°55.775 100.3 3.5 285.7 -999
2003-01-08 07:43:27 51°13.688 2°55.769 98.8 3.4 284.6 -999
2003-01-08 07:43:33 51°13.689 2°55.761 97.2 3.3 283.6 12.7
2003-01-08 07:43:37 51°13.69 2°55.755 95.7 3.2 282.6 12.8
2003-01-08 07:43:41 51°13.691 2°55.75 94.2 3 281.5 12.8
2003-01-08 07:43:47 51°13.692 2°55.743 92 2.8 280.5 13.2
2003-01-08 07:43:51 51°13.692 2°55.74 89.5 2.5 279.5 13.3
2003-01-08 07:43:57 51°13.693 2°55.734 87 2.3 279.2 13.5
2003-01-08 07:44:01 51°13.693 2°55.731 84.8 1.9 279.7 12.1
2003-01-08 07:44:07 51°13.694 2°55.728 81.5 1.4 282.6 12.4
2003-01-08 07:44:11 51°13.694 2°55.726 76.8 1 289.7 12.4
2003-01-08 07:44:17 51°13.695 2°55.725 71.2 0.7 303 12.7
2003-01-08 07:44:21 51°13.695 2°55.724 66.3 0.6 317.6 13
2003-01-08 07:44:27 51°13.696 2°55.724 61.5 0.6 336.8 13.1
2003-01-08 07:44:31 51°13.697 2°55.724 56.8 0.6 346.4 13.2
2003-01-08 07:44:37 51°13.698 2°55.724 52.2 0.7 354 12.9
2003-01-08 07:44:41 51°13.699 2°55.723 47.7 0.8 358.1 12.6
2003-01-08 07:44:47 51°13.701 2°55.724 42.8 0.9 2.1 12.6
2003-01-08 07:44:51 51°13.702 2°55.724 38.7 1 2.4 12.6
2003-01-08 07:44:55 51°13.703 2°55.724 33.7 1.1 3.2 12.4
2003-01-08 07:45:01 51°13.705 2°55.724 29 1.2 1.3 12
2003-01-08 07:45:07 51°13.708 2°55.723 24 1.3 359.3 11.7
2003-01-08 07:45:11 51°13.709 2°55.723 19 1.5 356.4 11.5
2003-01-08 07:45:15 51°13.711 2°55.723 13.5 1.7 353.7 11.3
2003-01-08 07:45:21 51°13.714 2°55.722 8.2 1.8 350.3 11.1
2003-01-08 07:45:27 51°13.718 2°55.72 2.7 2 347.2 11
2003-01-08 07:45:31 51°13.72 2°55.719 357.7 2.2 344.2 11
2003-01-08 07:45:35 51°13.722 2°55.718 352.5 2.4 341.4 10.8
2003-01-08 07:45:47 51°13.732 2°55.712 345.2 3 337.3 10.2
2003-01-08 07:45:51 51°13.735 2°55.709 343.3 3.2 335.7 9.8
2003-01-08 07:45:55 51°13.739 2°55.706 341.3 3.5 334.7 9.8
2003-01-08 07:46:01 51°13.745 2°55.702 340 3.8 333.8 9.9
2003-01-08 07:46:07 51°13.751 2°55.696 338.8 4.1 332.9 9.8
2003-01-08 07:46:12 51°13.756 2°55.692 338.3 4.2 332.7 9.7
2003-01-08 07:46:17 51°13.761 2°55.688 338 4.2 332.4 9.8
2003-01-08 07:46:22 51°13.766 2°55.683 338.2 4.2 332.6 9.5
2003-01-08 07:46:27 51°13.771 2°55.679 338.3 4.2 332.8 9.5
2003-01-08 07:46:32 51°13.777 2°55.675 338.8 4.2 333.4 9.7
2003-01-08 07:46:37 51°13.782 2°55.671 339 4.3 333.7 10
2003-01-08 07:46:41 51°13.787 2°55.667 339 4.5 334.2 10
2003-01-08 07:46:47 51°13.794 2°55.661 338.7 4.7 334.3 10.1
2003-01-08 07:46:51 51°13.799 2°55.658 338.8 4.8 334.4 10.3
2003-01-08 07:46:57 51°13.807 2°55.652 339.2 5 335 10.1
2003-01-08 07:47:01 51°13.812 2°55.649 339.2 5.2 335.6 10.3
2003-01-08 07:47:07 51°13.82 2°55.643 339.3 5.3 336.2 10.1
2003-01-08 07:47:11 51°13.826 2°55.639 339.5 5.4 336.6 10.2
2003-01-08 07:47:17 51°13.834 2°55.633 339.3 5.5 336.9 10.1
2003-01-08 07:47:21 51°13.84 2°55.629 339.2 5.6 337 10
2003-01-08 07:47:27 51°13.849 2°55.623 339.2 5.8 337.1 10.1
2003-01-08 07:47:31 51°13.855 2°55.619 339.3 5.9 337 10
2003-01-08 07:47:37 51°13.864 2°55.613 339.8 6 337.2 10
2003-01-08 07:47:41 51°13.87 2°55.609 340 6.1 337.1 9.9
2003-01-08 07:47:47 51°13.879 2°55.602 339.3 6.2 336.9 10
2003-01-08 07:47:51 51°13.886 2°55.597 338.7 6.3 336.1 10
2003-01-08 07:47:57 51°13.895 2°55.59 338.5 6.4 335.6 10
2003-01-08 07:48:01 51°13.902 2°55.585 338.3 6.4 335.3 10.1
2003-01-08 07:48:07 51°13.911 2°55.578 338.8 6.5 335.3 10.1
2003-01-08 07:48:12 51°13.92 2°55.572 339 6.5 335.4 10.1
2003-01-08 07:48:17 51°13.928 2°55.566 339.2 6.6 335.4 10.1
2003-01-08 07:48:22 51°13.937 2°55.559 339.2 6.7 335.3 9.8
2003-01-08 07:48:27 51°13.945 2°55.553 338.7 6.8 335.3 10
2003-01-08 07:48:32 51°13.953 2°55.546 337.8 6.9 334.9 9.8
2003-01-08 07:48:37 51°13.962 2°55.539 337.5 6.9 334.7 10
2003-01-08 07:48:41 51°13.969 2°55.534 338 7 334.7 10
2003-01-08 07:48:47 51°13.98 2°55.526 338.8 7.1 335.3 10.1
2003-01-08 07:48:51 51°13.988 2°55.521 339.7 7.2 336.1 10
2003-01-08 07:48:57 51°13.999 2°55.514 339.5 7.2 336.6 10
2003-01-08 07:49:01 51°14.007 2°55.509 339.7 7.3 336.9 10
2003-01-08 07:49:07 51°14.018 2°55.502 340.2 7.3 337 10
2003-01-08 07:49:11 51°14.025 2°55.496 340.5 7.4 337.1 10
2003-01-08 07:49:17 51°14.037 2°55.489 339.7 7.4 336.8 10
2003-01-08 07:49:21 51°14.044 2°55.483 338.7 7.4 336 10
2003-01-08 07:49:27 51°14.056 2°55.475 337.8 7.5 335 10
2003-01-08 07:49:31 51°14.063 2°55.469 337.7 7.5 334.3 9.6
2003-01-08 07:49:37 51°14.075 2°55.46 337.5 7.6 333.9 9.5
2003-01-08 07:49:41 51°14.082 2°55.454 337.8 7.7 333.7 9.7
2003-01-08 07:49:47 51°14.094 2°55.444 337.3 7.8 333.4 10
2003-01-08 07:49:51 51°14.102 2°55.438 336.3 7.9 332.7 9.8
2003-01-08 07:49:57 51°14.114 2°55.428 334.8 8 331.9 9.3
2003-01-08 07:50:01 51°14.121 2°55.421 334.5 8 331.3 9.3
2003-01-08 07:50:07 51°14.133 2°55.411 334.8 8.1 331.3 -999
2003-01-08 07:50:13 51°14.145 2°55.4 333.8 8.2 331 -999
2003-01-08 07:50:17 51°14.153 2°55.392 332.3 8.2 329.8 10
2003-01-08 07:50:23 51°14.165 2°55.38 331.5 8.3 328.9 10
2003-01-08 07:50:28 51°14.174 2°55.37 330.7 8.4 327.7 -999
2003-01-08 07:50:31 51°14.18 2°55.364 329.2 8.4 327 9.8
2003-01-08 07:50:37 51°14.192 2°55.351 327.7 8.4 325.1 9.9
2003-01-08 07:50:43 51°14.203 2°55.338 326.7 8.5 324 -999
2003-01-08 07:50:47 51°14.21 2°55.328 325.5 8.5 322.3 -999
2003-01-08 07:50:53 51°14.221 2°55.314 323.8 8.5 321.2 -999
2003-01-08 07:50:57 51°14.229 2°55.304 322.2 8.5 319.4 -999
2003-01-08 07:51:03 51°14.239 2°55.289 320.8 8.6 318.3 9.7
2003-01-08 07:51:07 51°14.246 2°55.278 320.2 8.6 316.8 -999
2003-01-08 07:51:13 51°14.256 2°55.262 319.3 8.6 316 -999
2003-01-08 07:51:17 51°14.263 2°55.251 317.7 8.7 314.7 -999
2003-01-08 07:51:23 51°14.273 2°55.234 316.3 8.7 313.5 10.1
2003-01-08 07:51:27 51°14.279 2°55.223 315.3 8.7 312.1 10.1
2003-01-08 07:51:31 51°14.285 2°55.211 314.2 8.7 310.8 9.9
2003-01-08 07:51:37 51°14.295 2°55.193 313.5 8.7 309.7 9.9
2003-01-08 07:51:41 51°14.301 2°55.181 313.3 8.7 309.1 9.9
2003-01-08 07:51:47 51°14.31 2°55.163 313.2 8.8 308.9 10
2003-01-08 07:51:51 51°14.316 2°55.15 312.3 8.8 308.3 10.2
2003-01-08 07:51:55 51°14.322 2°55.138 311.7 8.9 307.4 10.1
2003-01-08 07:52:01 51°14.33 2°55.119 311.2 8.9 306.8 10.1
2003-01-08 07:52:07 51°14.339 2°55.099 310.3 9 306.1 10
2003-01-08 07:52:11 51°14.345 2°55.086 309.8 9 305.5 10.3
2003-01-08 07:52:17 51°14.354 2°55.066 309.7 9 305 10.5
2003-01-08 07:52:21 51°14.36 2°55.053 309.2 9.2 304.6 10.6
2003-01-08 07:52:27 51°14.368 2°55.031 307.8 9.4 304 10.3
2003-01-08 07:52:32 51°14.376 2°55.013 307 9.8 302.9 10
2003-01-08 07:52:37 51°14.383 2°54.993 307.2 10.2 302.4 10.1
2003-01-08 07:52:41 51°14.39 2°54.977 307.3 10.6 302.5 10.1
2003-01-08 07:52:47 51°14.4 2°54.953 308.7 10.9 303.4 10.2
2003-01-08 07:52:51 51°14.407 2°54.937 311.3 11.2 304.5 10.2
2003-01-08 07:52:57 51°14.42 2°54.913 316 11.5 308.2 10
2003-01-08 07:53:01 51°14.429 2°54.899 320.7 11.7 312.3 10.1
2003-01-08 07:53:07 51°14.443 2°54.876 322.3 11.9 315 10.3
2003-01-08 07:53:11 51°14.453 2°54.862 324.5 12 316.8 10
2003-01-08 07:53:17 51°14.468 2°54.84 325 12.2 317.6 10
2003-01-08 07:53:21 51°14.478 2°54.825 325.3 12.3 317.6 10
2003-01-08 07:53:27 51°14.494 2°54.803 326.2 12.4 318 9.8
2003-01-08 07:53:31 51°14.504 2°54.788 326.5 12.5 318.3 9.8
2003-01-08 07:53:36 51°14.517 2°54.77 325.8 12.6 317.9 9.7
2003-01-08 07:53:41 51°14.53 2°54.75 324.5 12.6 317 9.7
2003-01-08 07:53:47 51°14.545 2°54.727 323.7 12.6 315.9 9.6
2003-01-08 07:53:51 51°14.555 2°54.712 324.7 12.6 316.2 9.5
2003-01-08 07:53:57 51°14.571 2°54.689 327.3 12.6 317.6 9.5
2003-01-08 07:54:01 51°14.582 2°54.675 329.7 12.6 319.9 9.6
2003-01-08 07:54:07 51°14.598 2°54.655 331.2 12.5 321.8 9.5
2003-01-08 07:54:11 51°14.609 2°54.642 331.8 12.5 322.7 9.5
2003-01-08 07:54:17 51°14.626 2°54.623 332.8 12.5 323.6 9.5
2003-01-08 07:54:21 51°14.638 2°54.611 333.8 12.5 325.3 9.4
2003-01-08 07:54:27 51°14.655 2°54.592 334.8 12.5 326 9.4
2003-01-08 07:54:31 51°14.667 2°54.581 337 12.4 328.1 9.5
2003-01-08 07:54:37 51°14.685 2°54.564 337.3 12.4 329 9.5
2003-01-08 07:54:41 51°14.697 2°54.554 338.2 12.4 330.1 9.5
2003-01-08 07:54:47 51°14.715 2°54.537 338.5 12.4 330.4 9.5
2003-01-08 07:54:51 51°14.727 2°54.527 338.5 12.4 330.5 9.5
2003-01-08 07:54:57 51°14.745 2°54.51 337.7 12.4 330.2 9.5
2003-01-08 07:55:01 51°14.757 2°54.499 337 12.4 329.7 9.4
2003-01-08 07:55:07 51°14.774 2°54.482 336.5 12.4 329.1 9.4
2003-01-08 07:55:11 51°14.786 2°54.471 336 12.4 328.6 9.4
2003-01-08 07:55:17 51°14.804 2°54.453 336 12.4 328.6 9.3
2003-01-08 07:55:19 51°14.81 2°54.447 335.3 12.5 328.2 9.4
2003-01-08 07:55:27 51°14.833 2°54.424 335.7 12.5 328.3 9.3
2003-01-08 07:55:31 51°14.845 2°54.413 335.7 12.5 328.4 9.2
2003-01-08 07:55:35 51°14.857 2°54.401 336.2 12.4 328.7 9.1
2003-01-08 07:55:41 51°14.874 2°54.384 336 12.4 328.6 9
2003-01-08 07:55:47 51°14.892 2°54.367 335.8 12.4 328.8 8.9
2003-01-08 07:55:51 51°14.904 2°54.356 336.3 12.4 328.7 8.8
2003-01-08 07:55:57 51°14.922 2°54.339 336.5 12.4 329 8.7
2003-01-08 07:56:01 51°14.933 2°54.327 336.3 12.3 329.1 8.6
2003-01-08 07:56:07 51°14.951 2°54.311 336.2 12.3 329.2 8.5
2003-01-08 07:56:11 51°14.963 2°54.3 336.2 12.3 329.2 8.5
2003-01-08 07:56:19 51°14.986 2°54.277 336.2 12.3 329 8.4
2003-01-08 07:56:23 51°14.998 2°54.266 336 12.3 328.8 8.5
2003-01-08 07:56:29 51°15.015 2°54.249 335.7 12.3 328.6 8.5
2003-01-08 07:56:33 51°15.027 2°54.237 335.3 12.4 328.3 8.5
2003-01-08 07:56:39 51°15.045 2°54.22 335.8 12.4 328.5 8.5
2003-01-08 07:56:43 51°15.057 2°54.209 335.7 12.4 328.5 8.5
2003-01-08 07:56:49 51°15.074 2°54.191 335.7 12.4 328.5 8.6
2003-01-08 07:56:53 51°15.086 2°54.18 335.7 12.4 328.6 8.7
2003-01-08 07:56:59 51°15.104 2°54.163 335.3 12.5 328.6 8.7
2003-01-08 07:57:03 51°15.116 2°54.151 335.7 12.5 328.6 8.8
2003-01-08 07:57:09 51°15.133 2°54.134 335.8 12.5 328.7 8.9
2003-01-08 07:57:13 51°15.145 2°54.122 335.7 12.5 328.5 8.9
2003-01-08 07:57:19 51°15.163 2°54.105 335.7 12.5 328.1 8.9
2003-01-08 07:57:23 51°15.174 2°54.093 335.2 12.5 327.2 9
2003-01-08 07:57:29 51°15.192 2°54.075 335.2 12.5 327.2 9
2003-01-08 07:57:33 51°15.203 2°54.063 335.7 12.4 327.2 9.1
2003-01-08 07:57:39 51°15.221 2°54.045 336.3 12.4 328 9.2
2003-01-08 07:57:43 51°15.233 2°54.034 336.8 12.4 328.5 9.2
2003-01-08 07:57:49 51°15.25 2°54.018 337.7 12.4 329.4 9.3
2003-01-08 07:57:53 51°15.262 2°54.007 338.3 12.3 329.9 9.3
2003-01-08 07:57:59 51°15.28 2°53.991 338.5 12.3 330.4 9.3
2003-01-08 07:58:03 51°15.292 2°53.98 338.7 12.3 330.5 9.5
2003-01-08 07:58:09 51°15.31 2°53.964 338.8 12.3 330.8 9.5
2003-01-08 07:58:13 51°15.321 2°53.953 338.5 12.3 330.8 9.6
2003-01-08 07:58:19 51°15.339 2°53.938 338.8 12.3 330.9 9.5
2003-01-08 07:58:23 51°15.351 2°53.927 338.5 12.3 330.8 9.6
2003-01-08 07:58:29 51°15.369 2°53.911 338.7 12.3 330.7 9.7
2003-01-08 07:58:33 51°15.381 2°53.9 338.3 12.3 330.4 9.8
2003-01-08 07:58:39 51°15.399 2°53.884 338.3 12.3 330.4 9.8
2003-01-08 07:58:43 51°15.411 2°53.873 338.2 12.3 330.2 9.9
2003-01-08 07:58:49 51°15.428 2°53.856 337.8 12.3 330 9.9
2003-01-08 07:58:53 51°15.44 2°53.845 338.2 12.3 329.8 10
2003-01-08 07:58:59 51°15.458 2°53.829 338.2 12.3 329.6 10
2003-01-08 07:59:03 51°15.469 2°53.818 338.2 12.3 329.7 10.1
2003-01-08 07:59:09 51°15.487 2°53.802 338.2 12.3 329.8 10.1
2003-01-08 07:59:13 51°15.499 2°53.79 337.8 12.3 329.9 10.2
2003-01-08 07:59:19 51°15.517 2°53.774 338.2 12.3 330 10.2
2003-01-08 07:59:23 51°15.529 2°53.763 338.5 12.4 330.5 10.3
2003-01-08 07:59:29 51°15.547 2°53.747 338.7 12.4 330.5 10.4
2003-01-08 07:59:31 51°15.553 2°53.742 338.3 12.5 330.6 10.5
2003-01-08 07:59:39 51°15.578 2°53.72 338.2 12.7 330.4 10.5
2003-01-08 07:59:43 51°15.59 2°53.708 338 12.8 330.4 10.6
2003-01-08 07:59:49 51°15.609 2°53.691 337.8 13 330.1 10.7
2003-01-08 07:59:53 51°15.621 2°53.679 337.3 13.2 330 10.7
2003-01-08 07:59:59 51°15.641 2°53.661 337.8 13.4 330 10.7
2003-01-08 08:00:03 51°15.654 2°53.649 337.5 13.5 329.9 10.8
2003-01-08 08:00:09 51°15.674 2°53.631 337.2 13.6 329.8 10.8
2003-01-08 08:00:13 51°15.687 2°53.619 337.2 13.7 329.6 10.9
2003-01-08 08:00:19 51°15.707 2°53.6 337.2 13.8 329.7 11
2003-01-08 08:00:23 51°15.72 2°53.588 337.3 13.9 329.9 11
2003-01-08 08:00:29 51°15.74 2°53.569 337.5 14 330 11.1
2003-01-08 08:00:33 51°15.754 2°53.557 337.5 14 330.1 11.1
2003-01-08 08:00:39 51°15.774 2°53.538 337.5 14.1 330 11.1
2003-01-08 08:00:43 51°15.788 2°53.526 337.3 14.1 329.9 11.2
2003-01-08 08:00:49 51°15.808 2°53.507 337.5 14.1 329.9 11.2
2003-01-08 08:00:53 51°15.822 2°53.494 337.3 14.2 329.9 11.3
2003-01-08 08:00:59 51°15.842 2°53.475 337.5 14.2 330 11.3
2003-01-08 08:01:03 51°15.856 2°53.463 337.2 14.2 330 11.4
2003-01-08 08:01:09 51°15.876 2°53.444 337.8 14.2 330.4 11.4
2003-01-08 08:01:14 51°15.894 2°53.428 337.5 14.2 330.2 11.5
2003-01-08 08:01:19 51°15.911 2°53.413 337.7 14.3 330.3 11.5
2003-01-08 08:01:23 51°15.924 2°53.4 337 14.3 330.1 11.6
2003-01-08 08:01:29 51°15.945 2°53.381 337 14.3 330.2 11.6
2003-01-08 08:01:33 51°15.959 2°53.368 337 14.3 329.8 11.7
2003-01-08 08:01:39 51°15.979 2°53.349 336.5 14.3 329.7 11.7
2003-01-08 08:01:43 51°15.993 2°53.337 336.8 14.3 329.8 11.7
2003-01-08 08:01:49 51°16.014 2°53.318 337.5 14.3 330 11.8
2003-01-08 08:01:51 51°16.02 2°53.312 337.5 14.3 330.4 11.8
2003-01-08 08:01:59 51°16.048 2°53.286 337.7 14.3 330.4 11.9
2003-01-08 08:02:03 51°16.062 2°53.274 337.7 14.3 330.5 11.9
2003-01-08 08:02:09 51°16.083 2°53.255 337.5 14.3 330.2 11.9
2003-01-08 08:02:13 51°16.097 2°53.242 337 14.3 330.1 11.9
2003-01-08 08:02:19 51°16.117 2°53.223 337.3 14.4 330.2 12
2003-01-08 08:02:23 51°16.131 2°53.211 337.7 14.3 330.4 12
2003-01-08 08:02:27 51°16.145 2°53.199 337.7 14.4 330.5 12
2003-01-08 08:02:33 51°16.166 2°53.18 338 14.3 330.6 12.1
2003-01-08 08:02:39 51°16.187 2°53.161 337.5 14.3 330.7 12
2003-01-08 08:02:43 51°16.201 2°53.149 337.8 14.3 330.6 12.1
2003-01-08 08:02:49 51°16.221 2°53.13 337.7 14.3 330.6 12.1
2003-01-08 08:02:53 51°16.235 2°53.117 337.7 14.3 330.4 12.1
2003-01-08 08:02:59 51°16.256 2°53.099 338 14.3 330.4 12.1
2003-01-08 08:03:03 51°16.269 2°53.086 337.5 14.3 330.2 12.2
2003-01-08 08:03:09 51°16.29 2°53.068 337.2 14.3 330.3 12.1
2003-01-08 08:03:14 51°16.308 2°53.052 337.3 14.3 330.2 12.1
2003-01-08 08:03:19 51°16.325 2°53.036 337.2 14.3 330.3 12.1
2003-01-08 08:03:23 51°16.338 2°53.024 337.7 14.3 330.3 12.1
2003-01-08 08:03:29 51°16.359 2°53.005 337.5 14.3 330.3 12.1
2003-01-08 08:03:33 51°16.373 2°52.992 337.3 14.3 330.5 12.1
2003-01-08 08:03:39 51°16.393 2°52.973 337.7 14.3 330.5 12
2003-01-08 08:03:43 51°16.407 2°52.961 337.3 14.2 330.5 12
2003-01-08 08:03:49 51°16.428 2°52.942 337.8 14.2 330.5 12
2003-01-08 08:03:51 51°16.435 2°52.936 337.7 14.3 330.6 12
2003-01-08 08:03:59 51°16.462 2°52.911 337.3 14.3 330.4 11.9
2003-01-08 08:04:03 51°16.476 2°52.899 337.5 14.3 330.4 11.8
2003-01-08 08:04:09 51°16.497 2°52.88 337.3 14.3 330.1 11.7
2003-01-08 08:04:13 51°16.51 2°52.867 337.2 14.3 330.2 11.7
2003-01-08 08:04:19 51°16.531 2°52.848 337.3 14.3 330.3 11.5
2003-01-08 08:04:23 51°16.545 2°52.836 337.8 14.2 330.5 11.5
2003-01-08 08:04:29 51°16.565 2°52.818 337.7 14.2 330.7 11.3
2003-01-08 08:04:33 51°16.579 2°52.805 337.8 14.2 330.9 11.3
2003-01-08 08:04:39 51°16.6 2°52.787 338.2 14.2 330.9 11.3
2003-01-08 08:04:43 51°16.613 2°52.774 338.2 14.2 330.7 11.1
2003-01-08 08:04:49 51°16.634 2°52.756 338.2 14.2 330.8 10.9
2003-01-08 08:04:51 51°16.641 2°52.75 338 14.2 330.9 10.8
2003-01-08 08:04:59 51°16.668 2°52.725 337.7 14.2 330.9 10.6
2003-01-08 08:05:03 51°16.682 2°52.713 338 14.1 331.1 10.5
2003-01-08 08:05:09 51°16.702 2°52.695 337.5 14.1 330.9 10.3
2003-01-08 08:05:13 51°16.716 2°52.683 337.8 14.1 330.9 10.1
2003-01-08 08:05:19 51°16.737 2°52.665 337.8 14.1 331 9.8
2003-01-08 08:05:23 51°16.75 2°52.653 337.8 14 330.9 9.4
2003-01-08 08:05:29 51°16.77 2°52.635 338.3 14 331.3 9.5
2003-01-08 08:05:33 51°16.784 2°52.623 337.8 13.9 331.3 9.7
2003-01-08 08:05:39 51°16.805 2°52.606 339 13.9 331.6 9.7
2003-01-08 08:05:43 51°16.818 2°52.594 338.5 13.9 331.6 9.4
2003-01-08 08:05:49 51°16.839 2°52.577 339.3 14 331.9 9.3
2003-01-08 08:05:51 51°16.846 2°52.571 338.8 14 331.9 9.3
2003-01-08 08:05:59 51°16.874 2°52.548 339.2 14 332.1 9.5
2003-01-08 08:06:03 51°16.887 2°52.537 339 14 332.2 9.8
2003-01-08 08:06:09 51°16.908 2°52.52 340 14 332.8 9.8
2003-01-08 08:06:13 51°16.922 2°52.508 340.2 14.1 333.2 9.7
2003-01-08 08:06:19 51°16.943 2°52.492 340.5 14.1 333.7 9.3
2003-01-08 08:06:23 51°16.958 2°52.481 341.2 14.2 334 9.3
2003-01-08 08:06:29 51°16.979 2°52.465 341.2 14.1 334.1 9.3
2003-01-08 08:06:31 51°16.986 2°52.46 341.5 14 334.5 9.3
2003-01-08 08:06:39 51°17.014 2°52.438 341.7 13.9 334.4 9.3
2003-01-08 08:06:43 51°17.028 2°52.428 342.2 13.9 334.8 9.4
2003-01-08 08:06:49 51°17.049 2°52.412 341.5 14 334.9 9.4
2003-01-08 08:06:53 51°17.063 2°52.401 342.3 14.1 335.2 9.5
2003-01-08 08:06:59 51°17.084 2°52.385 341.5 14.1 334.9 9.6
2003-01-08 08:07:03 51°17.098 2°52.375 342 14.1 334.9 9.6
2003-01-08 08:07:09 51°17.119 2°52.358 340.8 14.1 334.3 9.7
2003-01-08 08:07:11 51°17.126 2°52.353 341.5 14.1 334.3 9.8
2003-01-08 08:07:19 51°17.155 2°52.331 341 14.2 334.1 9.8
2003-01-08 08:07:23 51°17.169 2°52.32 341.7 14.1 334.2 9.8
2003-01-08 08:07:29 51°17.19 2°52.304 340.8 14.2 333.9 9.9
2003-01-08 08:07:33 51°17.204 2°52.293 341 14.2 333.6 9.9
2003-01-08 08:07:39 51°17.226 2°52.276 340.8 14.2 333.7 10.1
2003-01-08 08:07:43 51°17.24 2°52.265 341.2 14.2 333.6 10
2003-01-08 08:07:49 51°17.261 2°52.248 340.7 14.2 333.7 10
2003-01-08 08:07:53 51°17.275 2°52.237 340.7 14.2 333.3 10.1
2003-01-08 08:07:59 51°17.296 2°52.22 341.2 14.2 333.5 10.2
2003-01-08 08:08:03 51°17.31 2°52.209 340.7 14.2 333.4 10.2
2003-01-08 08:08:09 51°17.331 2°52.192 341 14.2 333.6 10.2
2003-01-08 08:08:13 51°17.345 2°52.181 341.2 14.2 333.5 10.1
2003-01-08 08:08:19 51°17.366 2°52.164 340.8 14.1 333.5 10.1
2003-01-08 08:08:23 51°17.38 2°52.153 340.8 14.1 333.6 10.2
2003-01-08 08:08:29 51°17.402 2°52.137 341.3 14.1 333.9 10.1
2003-01-08 08:08:34 51°17.419 2°52.123 341 14.1 333.8 9.9
2003-01-08 08:08:39 51°17.436 2°52.109 341.3 14.1 333.7 10
2003-01-08 08:08:43 51°17.451 2°52.098 341.7 14.1 333.7 10.2
2003-01-08 08:08:49 51°17.472 2°52.081 341.2 14.1 333.9 10.1
2003-01-08 08:08:53 51°17.485 2°52.07 341.8 14.1 334 10
2003-01-08 08:08:59 51°17.507 2°52.054 341.3 14.1 333.9 10.2
2003-01-08 08:09:03 51°17.521 2°52.043 341.8 14.1 334.2 10
2003-01-08 08:09:07 51°17.535 2°52.032 341.7 14.1 334.1 10.2
2003-01-08 08:09:14 51°17.559 2°52.013 341.7 14.1 334 10.2
2003-01-08 08:09:19 51°17.577 2°51.999 341.3 14.1 334 10.2
2003-01-08 08:09:23 51°17.591 2°51.988 341.3 14.1 333.7 10.1
2003-01-08 08:09:29 51°17.612 2°51.972 341.5 14.1 334 10.1
2003-01-08 08:09:34 51°17.63 2°51.958 341 14.1 333.7 10.1
2003-01-08 08:09:39 51°17.648 2°51.944 341 14.1 333.7 10.1
2003-01-08 08:09:43 51°17.662 2°51.933 341.3 14.1 333.5 10.1
2003-01-08 08:09:49 51°17.683 2°51.916 341 14.1 333.6 10
2003-01-08 08:09:53 51°17.697 2°51.905 340.8 14.1 333.5 9.8
2003-01-08 08:09:59 51°17.718 2°51.889 341.3 14.1 333.9 10
2003-01-08 08:10:03 51°17.732 2°51.877 340.8 14.1 333.7 10
2003-01-08 08:10:09 51°17.753 2°51.861 342 14.1 334.3 9.6
2003-01-08 08:10:14 51°17.77 2°51.848 341.5 14.1 334.3 9.8
2003-01-08 08:10:19 51°17.788 2°51.834 341.7 14.1 334.3 9.9
2003-01-08 08:10:23 51°17.802 2°51.823 341.8 14.1 334.4 9.9
2003-01-08 08:10:29 51°17.823 2°51.807 342 14.1 334.6 9.9
2003-01-08 08:10:33 51°17.837 2°51.796 341.7 14.1 334.4 10
2003-01-08 08:10:39 51°17.859 2°51.78 341.5 14.2 334.2 9.8
2003-01-08 08:10:43 51°17.873 2°51.769 341.5 14.2 334.1 10
2003-01-08 08:10:49 51°17.894 2°51.752 340.5 14.1 333.5 9.9
2003-01-08 08:10:53 51°17.908 2°51.741 341.3 14.1 333.7 10
2003-01-08 08:10:59 51°17.929 2°51.724 341.2 14.2 333.7 10.2
2003-01-08 08:11:03 51°17.943 2°51.713 341.3 14.2 333.6 10
2003-01-08 08:11:09 51°17.964 2°51.696 340.8 14.2 333.6 10.1
2003-01-08 08:11:13 51°17.978 2°51.685 341.2 14.2 333.9 10.1
2003-01-08 08:11:19 51°17.999 2°51.668 340.3 14.2 333.2 10.4
2003-01-08 08:11:23 51°18.013 2°51.657 340.8 14.2 333.4 10.3
2003-01-08 08:11:29 51°18.034 2°51.639 340.3 14.2 333.1 10.5
2003-01-08 08:11:33 51°18.048 2°51.628 341 14.2 333.3 10.4
2003-01-08 08:11:39 51°18.069 2°51.611 340.8 14.2 333.4 10.7
2003-01-08 08:11:43 51°18.084 2°51.6 340.8 14.3 333.6 10.6
2003-01-08 08:11:49 51°18.105 2°51.583 341 14.3 333.6 10.9
2003-01-08 08:11:53 51°18.119 2°51.572 341 14.3 333.4 10.8
2003-01-08 08:11:59 51°18.14 2°51.555 341 14.3 333.4 11
2003-01-08 08:12:03 51°18.155 2°51.543 340.5 14.3 333.3 11.2
2003-01-08 08:12:09 51°18.176 2°51.527 341.2 14.3 333.4 11.3
2003-01-08 08:12:13 51°18.19 2°51.515 340.8 14.3 333.4 11.2
2003-01-08 08:12:19 51°18.211 2°51.498 341 14.3 333.4 11.4
2003-01-08 08:12:23 51°18.226 2°51.487 340.7 14.3 333.4 11.5
2003-01-08 08:12:29 51°18.247 2°51.47 341 14.3 333.3 11.6
2003-01-08 08:12:33 51°18.261 2°51.458 340.3 14.3 333.1 11.9
2003-01-08 08:12:39 51°18.282 2°51.441 340.5 14.3 333 11.9
2003-01-08 08:12:43 51°18.296 2°51.429 340.3 14.3 333.1 12
2003-01-08 08:12:49 51°18.318 2°51.412 340.5 14.3 333.1 12.2
2003-01-08 08:12:53 51°18.332 2°51.4 340.7 14.3 333 12.1
2003-01-08 08:12:59 51°18.353 2°51.383 340.7 14.3 333.2 12.4
2003-01-08 08:13:03 51°18.367 2°51.372 340.7 14.3 333.1 12.5
2003-01-08 08:13:09 51°18.388 2°51.354 340.8 14.3 333.3 12.5
2003-01-08 08:13:14 51°18.406 2°51.34 340.5 14.3 333.2 12.7
2003-01-08 08:13:19 51°18.423 2°51.326 341.2 14.3 333.5 12.9
2003-01-08 08:13:23 51°18.438 2°51.314 340 14.3 333.1 13
2003-01-08 08:13:29 51°18.459 2°51.297 340.7 14.3 333.3 13.1
2003-01-08 08:13:33 51°18.473 2°51.286 340.5 14.3 333.1 13
2003-01-08 08:13:39 51°18.494 2°51.27 342 14.3 334.2 13.2
2003-01-08 08:13:43 51°18.509 2°51.259 343.3 14.2 335.3 13.3
2003-01-08 08:13:49 51°18.53 2°51.245 344.5 14.2 336.8 13.3
2003-01-08 08:13:53 51°18.545 2°51.235 345.7 14.2 337.9 13.5
2003-01-08 08:13:59 51°18.567 2°51.222 347 14.1 339 13.6
2003-01-08 08:14:03 51°18.582 2°51.214 348 14.1 340.2 13.6
2003-01-08 08:14:09 51°18.604 2°51.202 349 14.1 341.1 13.7
2003-01-08 08:14:14 51°18.623 2°51.193 350 14.1 341.9 13.7
2003-01-08 08:14:19 51°18.642 2°51.184 350.5 14.1 342.7 13.7
2003-01-08 08:14:23 51°18.656 2°51.176 350.7 14 342.8 13.8
2003-01-08 08:14:29 51°18.679 2°51.166 351.7 14 343.3 13.8
2003-01-08 08:14:33 51°18.694 2°51.159 351.3 14 343.6 13.9
2003-01-08 08:14:39 51°18.716 2°51.149 352.2 14 344.2 13.9
2003-01-08 08:14:43 51°18.731 2°51.142 352.2 14 344.2 13.9
2003-01-08 08:14:49 51°18.754 2°51.133 353.2 14 345.1 14
2003-01-08 08:14:54 51°18.772 2°51.125 353 14 345.3 14.1
2003-01-08 08:14:59 51°18.791 2°51.118 354.2 13.9 346 14.1
2003-01-08 08:15:03 51°18.806 2°51.112 354 13.9 346.1 14.3
2003-01-08 08:15:09 51°18.828 2°51.103 354.5 13.9 346.4 14.2
2003-01-08 08:15:13 51°18.843 2°51.097 354.5 13.9 346.7 14.5
2003-01-08 08:15:19 51°18.866 2°51.089 355.3 13.9 347.2 14.3
2003-01-08 08:15:23 51°18.881 2°51.084 355.3 13.9 347.5 14.4
2003-01-08 08:15:29 51°18.904 2°51.075 355 13.9 347.3 14.5
2003-01-08 08:15:34 51°18.922 2°51.069 355.3 13.9 347.5 14.5
2003-01-08 08:15:39 51°18.941 2°51.062 354.8 13.9 347.2 14.5
2003-01-08 08:15:43 51°18.956 2°51.057 355.3 13.9 347.3 14.5
2003-01-08 08:15:49 51°18.979 2°51.048 354.7 14 347 14.4
2003-01-08 08:15:53 51°18.994 2°51.042 354.7 14 346.7 14.5
2003-01-08 08:15:59 51°19.017 2°51.034 354.3 14 346.8 14.5
2003-01-08 08:16:03 51°19.032 2°51.028 354.8 14 346.9 14.6
2003-01-08 08:16:09 51°19.054 2°51.02 354.2 14 346.8 14.5
2003-01-08 08:16:13 51°19.07 2°51.014 354.5 14 346.6 14.5
2003-01-08 08:16:19 51°19.092 2°51.005 353.8 14 346.2 14.5
2003-01-08 08:16:23 51°19.107 2°50.999 353.8 14 346 14.5
2003-01-08 08:16:29 51°19.13 2°50.99 354 14.1 346.2 14.5
2003-01-08 08:16:34 51°19.149 2°50.982 354 14.1 346 14.5
2003-01-08 08:16:39 51°19.168 2°50.975 353.7 14.1 346.1 14.6
2003-01-08 08:16:43 51°19.183 2°50.969 354 14 345.9 14.4
2003-01-08 08:16:49 51°19.206 2°50.96 353.7 14.1 345.9 14.4
2003-01-08 08:16:53 51°19.221 2°50.954 353.8 14.1 346.1 14.3
2003-01-08 08:16:59 51°19.244 2°50.945 354.2 14.1 346.4 14.1
2003-01-08 08:17:03 51°19.259 2°50.939 354.7 14.1 346.7 14.1
2003-01-08 08:17:09 51°19.282 2°50.93 354.2 14.1 346.3 14.1
2003-01-08 08:17:14 51°19.301 2°50.922 354 14.1 345.7 14.1
2003-01-08 08:17:19 51°19.319 2°50.912 350 14.1 343.3 13.9
2003-01-08 08:17:23 51°19.334 2°50.903 346.7 14.2 340 14.1
2003-01-08 08:17:29 51°19.356 2°50.887 343.7 14.2 336.9 13.7
2003-01-08 08:17:33 51°19.369 2°50.875 341.5 14.2 333.8 13.7
2003-01-08 08:17:39 51°19.39 2°50.857 339 14.3 332 13.8
2003-01-08 08:17:43 51°19.404 2°50.844 337.7 14.3 330.4 13.5
2003-01-08 08:17:49 51°19.424 2°50.825 337 14.3 329.7 13.4
2003-01-08 08:17:53 51°19.438 2°50.812 335.8 14.4 328.6 12.9
2003-01-08 08:17:59 51°19.458 2°50.791 335.3 14.4 328 12.8
2003-01-08 08:18:03 51°19.472 2°50.778 334.7 14.4 327.3 12.5
2003-01-08 08:18:09 51°19.492 2°50.757 334.5 14.4 326.8 12.4
2003-01-08 08:18:13 51°19.505 2°50.742 333.5 14.4 326.4 12
2003-01-08 08:18:19 51°19.525 2°50.721 333.7 14.4 326 12
2003-01-08 08:18:23 51°19.538 2°50.706 332.8 14.4 325.7 11.7
2003-01-08 08:18:29 51°19.558 2°50.685 333.7 14.4 325.9 11.7
2003-01-08 08:18:33 51°19.571 2°50.67 333 14.4 326.1 11.7
2003-01-08 08:18:39 51°19.591 2°50.649 333.8 14.4 326.4 11.7
2003-01-08 08:18:43 51°19.604 2°50.635 333.7 14.4 326.7 11.6
2003-01-08 08:18:49 51°19.624 2°50.614 333.7 14.5 326.6 11.2
2003-01-08 08:18:53 51°19.638 2°50.6 333.8 14.5 326.8 11.3
2003-01-08 08:18:59 51°19.658 2°50.579 334.5 14.5 326.9 11.5
2003-01-08 08:19:03 51°19.672 2°50.565 334 14.5 326.9 11.6
2003-01-08 08:19:09 51°19.692 2°50.544 334.5 14.5 327 11.8
2003-01-08 08:19:14 51°19.709 2°50.526 333.8 14.5 326.6 11.7
2003-01-08 08:19:19 51°19.726 2°50.509 334 14.6 326.9 11.8
2003-01-08 08:19:23 51°19.74 2°50.495 334 14.6 326.5 12.1
2003-01-08 08:19:29 51°19.76 2°50.474 334 14.6 327 12.3
2003-01-08 08:19:33 51°19.773 2°50.459 334 14.6 327.1 12.6
2003-01-08 08:19:39 51°19.794 2°50.438 334.7 14.7 327.4 12.8
2003-01-08 08:19:43 51°19.808 2°50.424 334.2 14.7 327.3 12.9
2003-01-08 08:19:49 51°19.828 2°50.403 334.2 14.7 327.4 13.1
2003-01-08 08:19:54 51°19.845 2°50.385 334.2 14.7 327.2 13.3
2003-01-08 08:19:59 51°19.862 2°50.368 333.8 14.7 327.2 13.5
2003-01-08 08:20:03 51°19.876 2°50.353 334.2 14.7 327 13.6
2003-01-08 08:20:09 51°19.896 2°50.333 334 14.6 327.1 13.8
2003-01-08 08:20:13 51°19.91 2°50.318 333.8 14.7 327.1 13.9
2003-01-08 08:20:19 51°19.931 2°50.297 334.2 14.7 327.3 13.8
2003-01-08 08:20:23 51°19.944 2°50.283 334.3 14.7 327.3 13.7
2003-01-08 08:20:29 51°19.965 2°50.263 334.3 14.7 327.6 13.9
2003-01-08 08:20:33 51°19.979 2°50.249 334.3 14.7 327.6 13.9
2003-01-08 08:20:39 51°20 2°50.228 334.2 14.7 327.5 14.3
2003-01-08 08:20:43 51°20.013 2°50.213 333.7 14.7 327 14.5
2003-01-08 08:20:49 51°20.034 2°50.192 334.5 14.7 327.1 14.8
2003-01-08 08:20:53 51°20.048 2°50.178 333.5 14.7 327 15
2003-01-08 08:20:59 51°20.068 2°50.157 334.5 14.7 327.4 15.4
2003-01-08 08:21:03 51°20.082 2°50.143 334 14.7 327.4 15.7
2003-01-08 08:21:07 51°20.095 2°50.129 333.7 14.7 327.1 15.9
2003-01-08 08:21:13 51°20.116 2°50.108 333.8 14.7 327.1 16.1
2003-01-08 08:21:19 51°20.137 2°50.087 334.3 14.7 327.1 16.4
2003-01-08 08:21:23 51°20.15 2°50.073 334.2 14.7 326.8 16.7
2003-01-08 08:21:29 51°20.171 2°50.052 334.7 14.7 327.8 17
2003-01-08 08:21:34 51°20.188 2°50.034 333.8 14.7 327.3 17.3
2003-01-08 08:21:39 51°20.205 2°50.017 334.8 14.6 328.1 17.5
2003-01-08 08:21:43 51°20.219 2°50.003 333.8 14.6 327.5 17.8
2003-01-08 08:21:49 51°20.24 2°49.982 335 14.6 328.1 18.1
2003-01-08 08:21:53 51°20.253 2°49.968 334.2 14.7 327.7 18.3
2003-01-08 08:21:59 51°20.274 2°49.948 334.7 14.7 328.1 18.6
2003-01-08 08:22:03 51°20.288 2°49.933 334.5 14.7 327.7 18.8
2003-01-08 08:22:09 51°20.309 2°49.913 334.8 14.7 328.3 19.1
2003-01-08 08:22:14 51°20.326 2°49.895 334.3 14.7 327.9 19.4
2003-01-08 08:22:19 51°20.343 2°49.878 335 14.6 328.1 19.6
2003-01-08 08:22:23 51°20.357 2°49.864 333.7 14.6 327.6 19.7
2003-01-08 08:22:29 51°20.378 2°49.844 334.5 14.6 327.7 20.3
2003-01-08 08:22:33 51°20.391 2°49.83 334 14.6 327.5 20.5
2003-01-08 08:22:39 51°20.412 2°49.809 335 14.6 327.8 21
2003-01-08 08:22:43 51°20.425 2°49.795 333.8 14.6 327.2 21
2003-01-08 08:22:49 51°20.446 2°49.774 334.3 14.6 327.4 21.3
2003-01-08 08:22:53 51°20.459 2°49.759 333.3 14.5 326.6 21.3
2003-01-08 08:22:59 51°20.479 2°49.739 334.2 14.5 326.8 21.6
2003-01-08 08:23:03 51°20.493 2°49.724 333.2 14.4 326.6 21.7
2003-01-08 08:23:09 51°20.513 2°49.703 334.2 14.4 326.7 21.6
2003-01-08 08:23:19 51°20.546 2°49.669 334 14.4 327.1 21.7
2003-01-08 08:23:23 51°20.559 2°49.656 334.7 14.4 327.4 22.1
2003-01-08 08:23:27 51°20.573 2°49.642 334.3 14.4 327.5 22.2
2003-01-08 08:23:33 51°20.593 2°49.622 335 14.4 327.7 22.2
2003-01-08 08:23:39 51°20.613 2°49.601 334.8 14.4 327.9 22.4
2003-01-08 08:23:47 51°20.64 2°49.575 336.2 14.3 328.6 21.9
2003-01-08 08:23:51 51°20.654 2°49.561 336.2 14.3 328.9 22.3
2003-01-08 08:23:57 51°20.675 2°49.544 338.5 14.3 330.7 22.2
2003-01-08 08:24:02 51°20.692 2°49.529 339 14.3 331.6 22.4
2003-01-08 08:24:07 51°20.71 2°49.515 340.7 14.3 332.9 22.3
2003-01-08 08:24:11 51°20.725 2°49.504 341 14.3 333.8 22.5
2003-01-08 08:24:17 51°20.746 2°49.488 342.2 14.3 334.6 22.1
2003-01-08 08:24:21 51°20.761 2°49.477 342.5 14.3 335.3 22.4
2003-01-08 08:24:27 51°20.782 2°49.461 343.5 14.3 335.9 22.2
2003-01-08 08:24:31 51°20.797 2°49.451 344.2 14.3 336.4 22.4
2003-01-08 08:24:37 51°20.819 2°49.436 344.3 14.3 336.7 22.2
2003-01-08 08:24:42 51°20.837 2°49.423 344.2 14.3 336.7 22.3
2003-01-08 08:24:47 51°20.855 2°49.412 344.7 14.3 337.3 22.1
2003-01-08 08:24:51 51°20.87 2°49.402 344.3 14.3 337.3 22.2
2003-01-08 08:24:57 51°20.892 2°49.388 345.8 14.3 337.9 22.1
2003-01-08 08:25:01 51°20.907 2°49.379 346.5 14.3 338.7 22.2
2003-01-08 08:25:07 51°20.929 2°49.365 346.3 14.3 338.8 22
2003-01-08 08:25:11 51°20.944 2°49.357 348 14.2 339.9 22.1
2003-01-08 08:25:17 51°20.966 2°49.345 348.8 14.2 340.8 22
2003-01-08 08:25:22 51°20.985 2°49.335 349.3 14.2 341.8 21.8
2003-01-08 08:25:27 51°21.004 2°49.326 350.3 14.2 342.7 21.6
2003-01-08 08:25:31 51°21.019 2°49.318 350.8 14.2 343 21.2
2003-01-08 08:25:37 51°21.042 2°49.308 351.3 14.2 343.5 21.7
2003-01-08 08:25:43 51°21.064 2°49.297 351.5 14.2 343.7 21.8
2003-01-08 08:25:47 51°21.079 2°49.289 351.5 14.2 343.6 21.8
2003-01-08 08:25:51 51°21.094 2°49.283 352.3 14.2 343.9 21
2003-01-08 08:25:57 51°21.117 2°49.272 351.8 14.2 344.1 21.5
2003-01-08 08:26:01 51°21.132 2°49.266 352.5 14.1 344.8 21.6
2003-01-08 08:26:07 51°21.155 2°49.256 352.5 14.1 344.5 21.3
2003-01-08 08:26:11 51°21.17 2°49.249 353 14.1 344.9 21.3
2003-01-08 08:26:17 51°21.193 2°49.239 351.8 14.1 344.6 21.4
2003-01-08 08:26:23 51°21.215 2°49.229 352.5 14.1 344.8 21.3
2003-01-08 08:26:27 51°21.231 2°49.223 352.3 14.2 344.7 21.2
2003-01-08 08:26:31 51°21.246 2°49.216 352.5 14.2 345 21.2
2003-01-08 08:26:37 51°21.269 2°49.206 352.2 14.2 344.7 20.6
2003-01-08 08:26:43 51°21.292 2°49.197 354 14.2 345.8 21.1
2003-01-08 08:26:47 51°21.307 2°49.191 354.5 14.2 346.6 21.2
2003-01-08 08:26:51 51°21.323 2°49.186 355.5 14.2 347.4 21.3
2003-01-08 08:26:58 51°21.35 2°49.177 355.8 14.2 347.9 21.1
2003-01-08 08:27:01 51°21.361 2°49.174 356.7 14.2 348.8 21
2003-01-08 08:27:07 51°21.384 2°49.167 357.5 14.2 349.6 21
2003-01-08 08:27:11 51°21.4 2°49.163 358.2 14.2 350.2 21
2003-01-08 08:27:17 51°21.423 2°49.158 359.8 14.2 351.6 21
2003-01-08 08:27:22 51°21.443 2°49.153   14.1 351.9 21
2003-01-08 08:27:27 51°21.462 2°49.149 0.3 14.1 352.4 21.2
2003-01-08 08:27:31 51°21.478 2°49.146   14.2 352.4 21.1
2003-01-08 08:27:37 51°21.501 2°49.141 0.5 14.1 352.4 20.9
2003-01-08 08:27:43 51°21.524 2°49.136 0.2 14.1 352.3 20.9
2003-01-08 08:27:47 51°21.54 2°49.132 0.2 14.1 352.5 21.3
2003-01-08 08:27:51 51°21.556 2°49.129 0.5 14.2 352.7 21.2
2003-01-08 08:27:57 51°21.579 2°49.124 0.5 14.2 352.7 21.6
2003-01-08 08:28:01 51°21.595 2°49.121 0.3 14.2 352.8 21.8
2003-01-08 08:28:07 51°21.618 2°49.116 0.7 14.2 352.6 21.8
2003-01-08 08:28:11 51°21.634 2°49.113 0.7 14.2 352.8 22.1
2003-01-08 08:28:17 51°21.657 2°49.108   14.2 352.5 22.2
2003-01-08 08:28:22 51°21.677 2°49.105 0.8 14.2 352.8 22.2
2003-01-08 08:28:27 51°21.696 2°49.101 359.8 14.2 352.6 22.4
2003-01-08 08:28:31 51°21.712 2°49.098 0.3 14.2 352.6 22.3
2003-01-08 08:28:37 51°21.736 2°49.093 0.5 14.2 352.8 22.8
2003-01-08 08:28:43 51°21.759 2°49.088 0.2 14.2 352.6 22.6
2003-01-08 08:28:47 51°21.775 2°49.085 359.8 14.2 352.6 22.1
2003-01-08 08:28:51 51°21.79 2°49.081 0.2 14.3 352.5 22.5
2003-01-08 08:28:58 51°21.818 2°49.076 0.7 14.3 352.8 22.7
2003-01-08 08:29:03 51°21.837 2°49.071 0.3 14.3 352.7 21.9
2003-01-08 08:29:07 51°21.853 2°49.068 0.8 14.3 353.1 22.4
2003-01-08 08:29:11 51°21.869 2°49.065 0.7 14.3 352.9 22.4
2003-01-08 08:29:19 51°21.9 2°49.059 1.2 14.3 353.1 22.7
2003-01-08 08:29:23 51°21.916 2°49.056 0.2 14.3 353.1 22.9
2003-01-08 08:29:27 51°21.932 2°49.053 0.7 14.3 353.4 22.5
2003-01-08 08:29:33 51°21.956 2°49.049 1.7 14.3 354.2 22.8
2003-01-08 08:29:39 51°21.979 2°49.047 3.8 14.3 355.5 22.6
2003-01-08 08:29:47 51°22.011 2°49.044 4 14.3 356.7 21.8
2003-01-08 08:29:51 51°22.026 2°49.042 5.2 14.2 357 22.4
2003-01-08 08:29:57 51°22.05 2°49.04 4.8 14.2 357 22.4
2003-01-08 08:30:01 51°22.066 2°49.039 5.2 14.2 357.5 22.7
2003-01-08 08:30:07 51°22.089 2°49.037 4.8 14.2 357.6 22.8
2003-01-08 08:30:11 51°22.105 2°49.037 5.8 14.2 358.1 22.7
2003-01-08 08:30:17 51°22.129 2°49.035 5.2 14.2 357.7 22.8
2003-01-08 08:30:22 51°22.149 2°49.034 5.7 14.2 357.9 22.5
2003-01-08 08:30:27 51°22.168 2°49.032 5 14.2 357.8 22.8
2003-01-08 08:30:31 51°22.184 2°49.031 5.2 14.2 357.8 22.6
2003-01-08 08:30:37 51°22.208 2°49.031 5.8 14.2 358.7 22.7
2003-01-08 08:30:43 51°22.231 2°49.03 5.5 14.2 358.6 22.1
2003-01-08 08:30:47 51°22.247 2°49.029 5.8 14.1 358.9 21.9
2003-01-08 08:30:51 51°22.263 2°49.029 5.5 14.1 358.8 21.4
2003-01-08 08:30:58 51°22.29 2°49.027 5.5 14.1 358.3 20.1
2003-01-08 08:31:01 51°22.302 2°49.026 4.3 14.1 357.5 19.9
2003-01-08 08:31:07 51°22.325 2°49.024 5 14.2 357.3 21.9
2003-01-08 08:31:11 51°22.341 2°49.023 3.8 14.2 356.9 22.5
2003-01-08 08:31:17 51°22.365 2°49.022 5 14.2 357.4 22.1
2003-01-08 08:31:22 51°22.384 2°49.02 4.7 14.2 357.3 22
2003-01-08 08:31:27 51°22.404 2°49.019 5.3 14.2 357.6 21.5
2003-01-08 08:31:31 51°22.42 2°49.017 4.7 14.2 357.6 20.5
2003-01-08 08:31:37 51°22.443 2°49.016 5.5 14.2 357.7 19.2
2003-01-08 08:31:43 51°22.467 2°49.014 5 14.3 357.5 18.9
2003-01-08 08:31:47 51°22.483 2°49.013 5.5 14.3 357.9 18.3
2003-01-08 08:31:51 51°22.499 2°49.012 5.3 14.2 357.8 17.4
2003-01-08 08:31:58 51°22.526 2°49.011 5 14.2 357.8 16.9
2003-01-08 08:32:01 51°22.538 2°49.01 5.7 14.2 358.3 18.2
2003-01-08 08:32:07 51°22.561 2°49.009 5.2 14.2 358 18
2003-01-08 08:32:11 51°22.577 2°49.008 5.2 14.2 358 17.5
2003-01-08 08:32:17 51°22.601 2°49.006 5.3 14.2 357.7 16.3
2003-01-08 08:32:22 51°22.621 2°49.005 5.8 14.2 357.8 17.2
2003-01-08 08:32:27 51°22.64 2°49.004 5.2 14.2 358 16.5
2003-01-08 08:32:31 51°22.656 2°49.003 5.8 14.1 358 14.7
2003-01-08 08:32:37 51°22.679 2°49.002 5.2 14.2 358 13.2
2003-01-08 08:32:43 51°22.703 2°49.001 5.8 14.1 358.2 15
2003-01-08 08:32:47 51°22.718 2°49 5 14.1 357.9 12.3
2003-01-08 08:32:51 51°22.734 2°48.999 5.5 14 358 15.5
2003-01-08 08:32:58 51°22.761 2°48.997 4.5 14.1 357.5 16.2
2003-01-08 08:33:01 51°22.773 2°48.997 5.8 14.1 358.4 16.1
2003-01-08 08:33:07 51°22.797 2°48.995 5.2 14.1 358.1 17
2003-01-08 08:33:11 51°22.812 2°48.995 6.2 14.1 358.9 16.6
2003-01-08 08:33:17 51°22.836 2°48.993 4.7 14.2 358.1 17.1
2003-01-08 08:33:22 51°22.856 2°48.993 5.7 14.2 358.4 15.5
2003-01-08 08:33:27 51°22.875 2°48.991 4.3 14.2 357.9 17.4
2003-01-08 08:33:31 51°22.891 2°48.99 5 14.1 357.7 17.2
2003-01-08 08:33:37 51°22.914 2°48.988 3.5 14.1 357 16
2003-01-08 08:33:43 51°22.938 2°48.987 4.5 14.1 357.1 16
2003-01-08 08:33:47 51°22.953 2°48.984 3.7 14.1 356.8 17.3
2003-01-08 08:33:51 51°22.969 2°48.983 4.2 14.1 356.7 17.7
2003-01-08 08:33:58 51°22.996 2°48.98 3.7 14.1 356.7 18.1
2003-01-08 08:34:03 51°23.016 2°48.979 4.5 14.1 357 18.2
2003-01-08 08:34:07 51°23.032 2°48.977 3.3 14.1 356.8 18.7
2003-01-08 08:34:11 51°23.047 2°48.975 4.2 14.1 356.3 19.2
2003-01-08 08:34:19 51°23.079 2°48.972 3 14.1 356 19.3
2003-01-08 08:34:23 51°23.094 2°48.972 4 14 356.5 18.2
2003-01-08 08:34:27 51°23.11 2°48.97 3.3 14 356.4 17.4
2003-01-08 08:34:33 51°23.133 2°48.968 3.5 14 356.5 18.9
2003-01-08 08:34:39 51°23.156 2°48.965 3.2 14 356.2 19.7
2003-01-08 08:34:47 51°23.187 2°48.962 3.3 13.9 355.8 20
2003-01-08 08:34:51 51°23.202 2°48.959 2.8 14 355.7 20
2003-01-08 08:34:57 51°23.226 2°48.957 3.5 14 356.3 20.1
2003-01-08 08:35:01 51°23.241 2°48.955 3.5 14 356 20.3
2003-01-08 08:35:07 51°23.265 2°48.953 3.8 14 356.3 19.9
2003-01-08 08:35:11 51°23.28 2°48.95 3 14 355.8 18.6
2003-01-08 08:35:17 51°23.303 2°48.948 3.8 14 356.4 19.7
2003-01-08 08:35:21 51°23.319 2°48.947 4 14 356.5 20.1
2003-01-08 08:35:27 51°23.342 2°48.945 3.8 14 356.6 20.2
2003-01-08 08:35:31 51°23.358 2°48.943 4.7 14 357 20.9
2003-01-08 08:35:37 51°23.381 2°48.941 3.8 14 357 21
2003-01-08 08:35:43 51°23.404 2°48.939 4.7 14 357.1 18.8
2003-01-08 08:35:47 51°23.42 2°48.938 3.5 14 356.9 20.1
2003-01-08 08:35:51 51°23.435 2°48.936 3.8 14 356.7 20.8
2003-01-08 08:35:57 51°23.458 2°48.934 3.7 14 356.5 21.3
2003-01-08 08:36:02 51°23.478 2°48.933 4 14 356.9 21.3
2003-01-08 08:36:07 51°23.497 2°48.93 3 14 356.2 21.3
2003-01-08 08:36:11 51°23.513 2°48.929 4.7 14 356.3 21.2
2003-01-08 08:36:17 51°23.536 2°48.926 3.5 14 356.2 21
2003-01-08 08:36:21 51°23.552 2°48.926 4.7 14 356.9 21.9
2003-01-08 08:36:27 51°23.575 2°48.923 3.5 14 356.3 21.4
2003-01-08 08:36:31 51°23.59 2°48.921 4.2 14 356.7 20.4
2003-01-08 08:36:37 51°23.613 2°48.918 3.7 14 356.1 20.1
2003-01-08 08:36:42 51°23.633 2°48.917 4.5 14 356.8 21.1
2003-01-08 08:36:47 51°23.652 2°48.914 3.3 14 355.9 21.8
2003-01-08 08:36:51 51°23.668 2°48.913 4.2 13.9 356.7 22
2003-01-08 08:36:57 51°23.691 2°48.911 3.2 14 356.2 21.7
2003-01-08 08:37:01 51°23.706 2°48.91 4.2 13.9 357.1 20.8
2003-01-08 08:37:07 51°23.729 2°48.907 3.7 13.9 356.6 21.6
2003-01-08 08:37:11 51°23.745 2°48.906 4.3 14 356.7 22.2
2003-01-08 08:37:17 51°23.768 2°48.904 4.3 13.9 356.5 22.3
2003-01-08 08:37:20 51°23.78 2°48.903 4.3 13.9 357.1 22
2003-01-08 08:37:27 51°23.807 2°48.9 3.3 13.9 356.6 21.8
2003-01-08 08:37:31 51°23.822 2°48.899 3.3 14 356.4 21.5
2003-01-08 08:37:37 51°23.845 2°48.896 3.8 14 356.4 20.5
2003-01-08 08:37:41 51°23.861 2°48.894 3.5 13.9 356.1 20.2
2003-01-08 08:37:47 51°23.884 2°48.892 3.3 13.9 356 21.6
2003-01-08 08:37:51 51°23.899 2°48.89 4.2 13.9 356.1 22
2003-01-08 08:37:58 51°23.926 2°48.887 3.8 13.9 356.5 22.1
2003-01-08 08:38:03 51°23.946 2°48.885 3.7 14 356.2 22
2003-01-08 08:38:07 51°23.961 2°48.885 4.8 13.9 357.2 22.2
2003-01-08 08:38:11 51°23.976 2°48.883 4.5 13.9 357.1 22.6
2003-01-08 08:38:17 51°23.999 2°48.882 5 13.8 357.8 22.3
2003-01-08 08:38:22 51°24.018 2°48.88 4.3 13.8 357.2 22.2
2003-01-08 08:38:27 51°24.037 2°48.878 4.5 13.9 357.1 21.7
2003-01-08 08:38:31 51°24.053 2°48.877 3.8 13.9 356.7 20.7
2003-01-08 08:38:37 51°24.076 2°48.875 4 13.8 356.8 20
2003-01-08 08:38:43 51°24.099 2°48.872 3.8 13.8 356.5 20.4
2003-01-08 08:38:47 51°24.114 2°48.871 4.2 13.8 356.7 20.7
2003-01-08 08:38:51 51°24.129 2°48.869 3.7 13.8 355.7 21.7
2003-01-08 08:38:58 51°24.155 2°48.866 3.3 13.7 355.7 21.2
2003-01-08 08:39:01 51°24.166 2°48.864 2 13.8 354.7 20.5
2003-01-08 08:39:07 51°24.189 2°48.861 2.3 13.8 354.4 21.4
2003-01-08 08:39:11 51°24.204 2°48.858 1.7 13.8 354 21.8
2003-01-08 08:39:19 51°24.236 2°48.853 2 13.8 354 19.5
2003-01-08 08:39:23 51°24.251 2°48.85 1.7 13.8 353.8 18.5
2003-01-08 08:39:27 51°24.266 2°48.847 1.8 13.8 353.5 19.5
2003-01-08 08:39:33 51°24.289 2°48.843 1.3 13.8 353.5 19.9
2003-01-08 08:39:39 51°24.312 2°48.838 1.5 13.9 353 19.7
2003-01-08 08:39:47 51°24.343 2°48.833 1.5 13.9 353.5 19.7
2003-01-08 08:39:51 51°24.358 2°48.83 1.8 13.9 353.9 19.7
2003-01-08 08:39:57 51°24.381 2°48.826 2 13.9 353.7 19.9
2003-01-08 08:40:01 51°24.396 2°48.824 2 13.9 354.3 20.1
2003-01-08 08:40:07 51°24.419 2°48.82 1.8 13.9 354.2 19.9
2003-01-08 08:40:11 51°24.435 2°48.817 1.7 14 354.1 20.4
2003-01-08 08:40:17 51°24.458 2°48.814 2.3 14 354.3 20.6
2003-01-08 08:40:21 51°24.473 2°48.811 2.2 14 354.4 20.7
2003-01-08 08:40:27 51°24.495 2°48.809 2.2 13.9 354.7 21.1
2003-01-08 08:40:31 51°24.511 2°48.806 1 14 354 20.8
2003-01-08 08:40:37 51°24.534 2°48.802 2.5 14 354.2 21.2
2003-01-08 08:40:41 51°24.55 2°48.799 1.3 14 353.9 21.4
2003-01-08 08:40:47 51°24.573 2°48.795 1.5 14 354 21.1
2003-01-08 08:40:51 51°24.589 2°48.792 1.3 14.1 354 21
2003-01-08 08:40:57 51°24.612 2°48.788 1.8 14 354.3 20.5
2003-01-08 08:41:02 51°24.632 2°48.785 1.7 14 353.8 20.4
2003-01-08 08:41:07 51°24.651 2°48.781 1.5 14 353.9 20.4
2003-01-08 08:41:11 51°24.667 2°48.779 1.5 14 353.9 20
2003-01-08 08:41:17 51°24.69 2°48.775 1 14 354 20.6
2003-01-08 08:41:23 51°24.713 2°48.77 1.3 14 353.8 20.4
2003-01-08 08:41:27 51°24.729 2°48.768 1.7 14 354.3 20.3
2003-01-08 08:41:31 51°24.745 2°48.765 1.3 14 353.4 21
2003-01-08 08:41:37 51°24.768 2°48.762 2 14 353.6 21.9
2003-01-08 08:41:41 51°24.783 2°48.758 0.8 14 353.3 22.2
2003-01-08 08:41:47 51°24.806 2°48.755 2 14 354 21.4
2003-01-08 08:41:51 51°24.822 2°48.752 1.8 14 354.1 22.4
2003-01-08 08:41:57 51°24.845 2°48.748 1.3 14 354.2 22.7
2003-01-08 08:42:01 51°24.86 2°48.745 1.7 13.9 353.9 23
2003-01-08 08:42:07 51°24.883 2°48.742 1.8 13.9 354.4 22.2
2003-01-08 08:42:11 51°24.899 2°48.739 1 14 354.2 23.6
2003-01-08 08:42:17 51°24.922 2°48.735 1.8 14 354.3 23.8
2003-01-08 08:42:22 51°24.941 2°48.733 2.3 14 355.1 24.1
2003-01-08 08:42:27 51°24.961 2°48.729 1.2 13.9 354.3 23.6
2003-01-08 08:42:31 51°24.976 2°48.726 1.3 14 353.9 24
2003-01-08 08:42:37 51°24.999 2°48.721 0.3 14 353.2 23.3
2003-01-08 08:42:41 51°25.015 2°48.719 0.5 14 353.4 23.8
2003-01-08 08:42:47 51°25.038 2°48.713 359 14 352.4 24.4
2003-01-08 08:42:52 51°25.057 2°48.71 359.7 14.1 352.5 24.4
2003-01-08 08:42:57 51°25.076 2°48.705 359.2 14 352.4 25
2003-01-08 08:43:01 51°25.092 2°48.701 359.5 14.1 352 24.9
2003-01-08 08:43:07 51°25.115 2°48.696 359.2 14.1 352 25.4
2003-01-08 08:43:11 51°25.13 2°48.692 359.2 14.1 352 25.3
2003-01-08 08:43:17 51°25.153 2°48.687 358.8 14.1 352.3 25.8
2003-01-08 08:43:21 51°25.169 2°48.683 358.8 14.1 351.8 25.9
2003-01-08 08:43:27 51°25.192 2°48.679 359.3 14.1 352.2 26.1
2003-01-08 08:43:31 51°25.207 2°48.675 359 14.1 352.2 26.4
2003-01-08 08:43:37 51°25.231 2°48.67 358.8 14.1 352.3 26.1
2003-01-08 08:43:41 51°25.246 2°48.666 358.8 14 351.9 25.9
2003-01-08 08:43:47 51°25.269 2°48.661 358.5 14 351.9 26.7
2003-01-08 08:43:51 51°25.284 2°48.657 358.7 14 351.2 27.3
2003-01-08 08:43:57 51°25.308 2°48.651 358.2 14 351.5 27.2
2003-01-08 08:44:02 51°25.327 2°48.647 358.2 14 351.2 27.2
2003-01-08 08:44:07 51°25.346 2°48.642 357.7 14 351.2 27.2
2003-01-08 08:44:11 51°25.361 2°48.638 357.8 14 351.1 27.5
2003-01-08 08:44:18 51°25.388 2°48.632 359 14 351.3 26.9
2003-01-08 08:44:22 51°25.403 2°48.629 358.3 14 351.7 26.6
2003-01-08 08:44:27 51°25.422 2°48.624 357.3 14 351.3 25.5
2003-01-08 08:44:31 51°25.438 2°48.621 358.5 14 351.8 25.5
2003-01-08 08:44:37 51°25.461 2°48.614 358.3 14 351.4 25.3
2003-01-08 08:44:43 51°25.484 2°48.609 359 14 351.9 24.1
2003-01-08 08:44:47 51°25.499 2°48.605 358 14.1 351.4 24.3
2003-01-08 08:44:51 51°25.515 2°48.602 358.8 14 351.6 23.8
2003-01-08 08:44:57 51°25.538 2°48.597 357.2 14 351.3 23.7
2003-01-08 08:45:02 51°25.557 2°48.593 358.8 14 351.8 23.2
2003-01-08 08:45:07 51°25.576 2°48.588 357.8 14 351.6 23.2
2003-01-08 08:45:11 51°25.592 2°48.584 358.3 14 351.7 23.4
2003-01-08 08:45:17 51°25.615 2°48.579 358 14.1 351.5 22.8
2003-01-08 08:45:21 51°25.63 2°48.575 358.3 14.1 351.5 23
2003-01-08 08:45:27 51°25.654 2°48.57 358.5 14.1 351.7 23.2
2003-01-08 08:45:31 51°25.669 2°48.566 358.2 14.1 351.6 22.6
2003-01-08 08:45:37 51°25.692 2°48.56 358.2 14.1 351.1 22.3
2003-01-08 08:45:41 51°25.707 2°48.556 357.2 14.1 350.7 23
2003-01-08 08:45:47 51°25.73 2°48.551 359.3 14.1 351.6 22.7
2003-01-08 08:45:51 51°25.745 2°48.546 358.2 14.1 351 22.8
2003-01-08 08:45:57 51°25.769 2°48.541 358 14.1 351.2 23.1
2003-01-08 08:46:01 51°25.784 2°48.536 357.5 14.1 350.6 23.2
2003-01-08 08:46:07 51°25.807 2°48.53 358.2 14.1 350.8 23.2
2003-01-08 08:46:11 51°25.823 2°48.526 358 14.1 350.6 23.1
2003-01-08 08:46:17 51°25.846 2°48.52 358.3 14.1 351.1 22.8
2003-01-08 08:46:20 51°25.857 2°48.517 358.7 14.1 351 22.9
2003-01-08 08:46:27 51°25.884 2°48.511 358.5 14 351.1 22.3
2003-01-08 08:46:31 51°25.9 2°48.507 359.5 14 352 22.7
2003-01-08 08:46:37 51°25.923 2°48.502 359 14 351.9 22.1
2003-01-08 08:46:41 51°25.939 2°48.499 359.8 14.1 352.6 22.7
2003-01-08 08:46:47 51°25.962 2°48.493 359.5 14.1 352.3 22.3
2003-01-08 08:46:52 51°25.981 2°48.489 0.2 14.1 352.4 22.5
2003-01-08 08:46:57 51°26.001 2°48.485 359 14.1 352.1 22.4
2003-01-08 08:47:01 51°26.017 2°48.482   14.1 352.5 22.3
2003-01-08 08:47:07 51°26.04 2°48.477 359.2 14.2 352.2 22.4
2003-01-08 08:47:11 51°26.055 2°48.474 359.8 14.1 352.3 22.5
2003-01-08 08:47:17 51°26.079 2°48.468 359 14.1 352.1 22
2003-01-08 08:47:22 51°26.098 2°48.465 359.3 14.1 352 22.7
2003-01-08 08:47:27 51°26.118 2°48.46 359.2 14.1 352.2 22.7
2003-01-08 08:47:31 51°26.133 2°48.456 358.7 14.1 351.6 20.2
2003-01-08 08:47:37 51°26.156 2°48.451 359.7 14.2 352.4 22
2003-01-08 08:47:41 51°26.172 2°48.447 359 14.2 352.1 21.4
2003-01-08 08:47:47 51°26.195 2°48.442 359.5 14.2 352.6 20.4
2003-01-08 08:47:51 51°26.211 2°48.438 359 14.2 352 21.1
2003-01-08 08:47:57 51°26.234 2°48.434   14.2 352.6 22
2003-01-08 08:48:02 51°26.253 2°48.428 359.3 14.2 351.7 20.9
2003-01-08 08:48:07 51°26.273 2°48.425 359.5 14.2 352.1 17.4
2003-01-08 08:48:11 51°26.289 2°48.421 0.2 14.2 352.6 18.7
2003-01-08 08:48:17 51°26.312 2°48.416 359.3 14.1 352.6 19.8
2003-01-08 08:48:21 51°26.327 2°48.413 0.7 14.1 352.6 20.2
2003-01-08 08:48:27 51°26.351 2°48.408   14.1 352.8 19.7
2003-01-08 08:48:31 51°26.366 2°48.405 0.2 14.1 352.9 17.2
2003-01-08 08:48:37 51°26.39 2°48.401   14.1 353 18
2003-01-08 08:48:43 51°26.413 2°48.396 0.2 14.2 353.1 19.8
2003-01-08 08:48:47 51°26.429 2°48.393 0.3 14.2 353.1 20.8
2003-01-08 08:48:51 51°26.444 2°48.39 0.2 14.2 353.4 21.2
2003-01-08 08:48:58 51°26.472 2°48.384 0.5 14.2 352.9 21.7
2003-01-08 08:49:01 51°26.484 2°48.381 0.7 14.2 352.8 21.9
2003-01-08 08:49:07 51°26.507 2°48.376 0.3 14.2 353 21.3
2003-01-08 08:49:11 51°26.523 2°48.373 359.7 14.3 352.6 21.2
2003-01-08 08:49:17 51°26.547 2°48.368 0.3 14.3 352.9 21.7
2003-01-08 08:49:23 51°26.57 2°48.363 359.8 14.3 352.5 21
2003-01-08 08:49:27 51°26.586 2°48.36   14.3 352.4 20
2003-01-08 08:49:31 51°26.601 2°48.356 358.7 14.3 351.6 19.8
2003-01-08 08:49:37 51°26.625 2°48.352 359.7 14.3 352.2 21
2003-01-08 08:49:43 51°26.648 2°48.346 359.5 14.3 351.9 20.9
2003-01-08 08:49:47 51°26.664 2°48.343 0.5 14.3 352.9 21.7
2003-01-08 08:49:51 51°26.68 2°48.34 0.3 14.3 353 22.1
2003-01-08 08:49:58 51°26.707 2°48.335 0.8 14.3 353.2 21.8
2003-01-08 08:50:01 51°26.719 2°48.332 1 14.3 352.7 22.1
2003-01-08 08:50:07 51°26.743 2°48.327 1.2 14.3 352.9 21.6
2003-01-08 08:50:11 51°26.758 2°48.325 1.2 14.3 353.3 22.2
2003-01-08 08:50:17 51°26.782 2°48.32   14.3 352.9 21.3
2003-01-08 08:50:21 51°26.798 2°48.316 0.5 14.3 352.9 22.4
2003-01-08 08:50:27 51°26.821 2°48.311 0.3 14.3 352.6 22.3
2003-01-08 08:50:31 51°26.837 2°48.308 0.5 14.3 352.6 22.6
2003-01-08 08:50:37 51°26.86 2°48.303 0.7 14.3 352.4 22.3
2003-01-08 08:50:41 51°26.876 2°48.3 0.8 14.2 352.8 22.1
2003-01-08 08:50:47 51°26.899 2°48.295   14.1 352.3 23
2003-01-08 08:50:51 51°26.915 2°48.291 358.2 14.2 351.3 22.8
2003-01-08 08:50:58 51°26.942 2°48.283 357.3 14.2 349.9 22.8
2003-01-08 08:51:03 51°26.961 2°48.276 355.2 14.1 348.5 22.3
2003-01-08 08:51:07 51°26.976 2°48.27 353 14.2 346.2 23.8
2003-01-08 08:51:11 51°26.992 2°48.264 353.7 14.3 346.3 24.5
2003-01-08 08:51:17 51°27.015 2°48.253 351.5 14.3 344.5 24
2003-01-08 08:51:23 51°27.038 2°48.244 352.3 14.3 345.4 22.4
2003-01-08 08:51:27 51°27.053 2°48.236 350.7 14.3 343.4 24.2
2003-01-08 08:51:31 51°27.068 2°48.23 350.5 14.2 343.7 23.9
2003-01-08 08:51:37 51°27.091 2°48.218 350.3 14.2 342.9 24.7
2003-01-08 08:51:42 51°27.109 2°48.207 349 14.3 342 24.8
2003-01-08 08:51:47 51°27.129 2°48.198 349 14.3 342.2 25.5
2003-01-08 08:51:51 51°27.144 2°48.189 348.3 14.3 341.5 24.4
2003-01-08 08:51:58 51°27.17 2°48.176 349.7 14.3 342.7 25.7
2003-01-08 08:52:03 51°27.189 2°48.166 348.5 14.3 341.5 24.1
2003-01-08 08:52:07 51°27.204 2°48.159 349.3 14.3 342.3 25.7
2003-01-08 08:52:11 51°27.219 2°48.15 348 14.3 341.4 25.4
2003-01-08 08:52:17 51°27.241 2°48.14 349.8 14.2 343.1 25.1
2003-01-08 08:52:22 51°27.26 2°48.128 347.3 14.3 341.1 25.6
2003-01-08 08:52:27 51°27.279 2°48.121 349.2 14.3 343 25.3
2003-01-08 08:52:31 51°27.294 2°48.111 347.8 14.3 341 25.6
2003-01-08 08:52:37 51°27.316 2°48.102 349.3 14.2 343.2 25.9
2003-01-08 08:52:43 51°27.339 2°48.088 348.2 14.3 341.2 26.1
2003-01-08 08:52:47 51°27.354 2°48.082 350.5 14.3 343.1 26.2
2003-01-08 08:52:51 51°27.369 2°48.072 347.7 14.4 341.3 26.2
2003-01-08 08:52:58 51°27.396 2°48.06 349.8 14.3 342.9 24.4
2003-01-08 08:53:01 51°27.407 2°48.053 348.7 14.3 341.6 24.2
2003-01-08 08:53:07 51°27.43 2°48.042 349.5 14.3 342.2 24.8
2003-01-08 08:53:11 51°27.445 2°48.034 348.7 14.3 341.8 25.6
2003-01-08 08:53:17 51°27.468 2°48.023 350 14.3 342.9 25.9
2003-01-08 08:53:22 51°27.487 2°48.013 349.2 14.4 342.3 25.6
2003-01-08 08:53:27 51°27.506 2°48.004 350.2 14.3 343.3 25
2003-01-08 08:53:31 51°27.521 2°47.995 348.3 14.4 341.5 25.2
2003-01-08 08:53:37 51°27.544 2°47.985 351.3 14.4 343.6 25.9
2003-01-08 08:53:43 51°27.566 2°47.972 348.2 14.4 341.6 25.3
2003-01-08 08:53:47 51°27.582 2°47.966 350.8 14.3 343.2 25.6
2003-01-08 08:53:51 51°27.596 2°47.955 348 14.3 340.9 25.4
2003-01-08 08:53:57 51°27.619 2°47.945 350.5 14.2 342.6 24.1
2003-01-08 08:54:03 51°27.641 2°47.931 348 14.3 340.3 24.4
2003-01-08 08:54:07 51°27.656 2°47.925 350.3 14.2 342.3 25.3
2003-01-08 08:54:11 51°27.671 2°47.916 347.7 14.2 340.7 25.2
2003-01-08 08:54:17 51°27.694 2°47.905 351 14.2 342.3 25.5
2003-01-08 08:54:20 51°27.705 2°47.898 347.8 14.3 340.3 25.9
2003-01-08 08:54:27 51°27.731 2°47.884 349.8 14.3 341.6 26
2003-01-08 08:54:31 51°27.746 2°47.875 348.5 14.3 340.9 25.9
2003-01-08 08:54:37 51°27.768 2°47.864 350.7 14.2 342 27.1
2003-01-08 08:54:41 51°27.783 2°47.855 348.8 14.2 341.3 26.9
2003-01-08 08:54:47 51°27.806 2°47.844 350.5 14.2 342.3 26.4
2003-01-08 08:54:51 51°27.821 2°47.836 349.3 14.2 341.9 26.5
2003-01-08 08:54:58 51°27.847 2°47.823 350.2 14.2 342.2 26.2
2003-01-08 08:55:03 51°27.866 2°47.812 350 14.2 341.8 27.6
2003-01-08 08:55:07 51°27.881 2°47.805 350 14.2 342 28.1
2003-01-08 08:55:11 51°27.896 2°47.797 350.2 14.2 342.1 27.6
2003-01-08 08:55:17 51°27.918 2°47.785 350 14.2 342 26.9
2003-01-08 08:55:22 51°27.937 2°47.773 348.8 14.2 340.5 27.9
2003-01-08 08:55:27 51°27.957 2°47.764 349.5 14.2 341.4 28.9
2003-01-08 08:55:31 51°27.971 2°47.753 347.8 14.3 339.9 28.9
2003-01-08 08:55:37 51°27.994 2°47.743 349.8 14.3 341.9 29.6
2003-01-08 08:55:43 51°28.017 2°47.73 348.7 14.3 340.8 29.2
2003-01-08 08:55:47 51°28.031 2°47.723 349.7 14.2 341.7 29.3
2003-01-08 08:55:51 51°28.046 2°47.715 348.8 14.2 341.3 29.3
2003-01-08 08:55:57 51°28.068 2°47.703 350.7 14.1 341.9 29.9
2003-01-08 08:56:02 51°28.087 2°47.693 349.5 14.1 341.9 31.1
2003-01-08 08:56:07 51°28.106 2°47.683 349.3 14.1 341.6 31.6
2003-01-08 08:56:11 51°28.12 2°47.676 349.8 14.1 341.6 31.5
2003-01-08 08:56:17 51°28.142 2°47.664 348.8 14.2 340.9 31.3
2003-01-08 08:56:22 51°28.161 2°47.653 349 14.2 341 31.7
2003-01-08 08:56:27 51°28.179 2°47.643 349.5 14.2 340.8 31.5
2003-01-08 08:56:35 51°28.209 2°47.626 348 14.1 340.5 30.4
2003-01-08 08:56:39 51°28.224 2°47.619 349.5 14.1 341.2 30.9
2003-01-08 08:56:45 51°28.245 2°47.605 348.2 14.2 340.1 30.6
2003-01-08 08:56:51 51°28.267 2°47.594 349.7 14.1 341.1 30.4
2003-01-08 08:56:55 51°28.282 2°47.584 348.5 14.2 340 30.5
2003-01-08 08:56:59 51°28.298 2°47.578 350.5 14.2 342.1 29.9
2003-01-08 08:57:05 51°28.32 2°47.564 348.5 14.1 340.9 29.4
2003-01-08 08:57:11 51°28.343 2°47.554 351.2 14.1 342.3 30.4
2003-01-08 08:57:15 51°28.357 2°47.545 349.3 14.1 341.8 30.7
2003-01-08 08:57:21 51°28.38 2°47.533 349.8 14.1 341.4 29.2
2003-01-08 08:57:25 51°28.395 2°47.526 351.7 14.1 342.5 28.7
2003-01-08 08:57:31 51°28.417 2°47.513 347.7 14.1 340.8 28.6
2003-01-08 08:57:39 51°28.446 2°47.498 348.3 14.1 341.6 28.4
2003-01-08 08:57:43 51°28.461 2°47.49 351.8 14.1 341.7 28.4
2003-01-08 08:57:49 51°28.484 2°47.479 349.3 14.1 342.4 28.6
2003-01-08 08:57:55 51°28.506 2°47.469 351.7 14.1 342.3 28.1
2003-01-08 08:57:59 51°28.521 2°47.461 351.2 14 343.1 27.8
2003-01-08 08:58:03 51°28.536 2°47.452 349.7 14.1 341.8 26.9
2003-01-08 08:58:09 51°28.558 2°47.442 351.2 14 342.6 28
2003-01-08 08:58:15 51°28.58 2°47.429 349.3 14 341.5 27.2
2003-01-08 08:58:19 51°28.594 2°47.422 349.7 14.1 341.6 26.2
2003-01-08 08:58:23 51°28.609 2°47.415 350.3 14.1 342.3 26.9
2003-01-08 08:58:30 51°28.635 2°47.401 349.7 14.1 341.5 27.2
2003-01-08 08:58:35 51°28.654 2°47.392 351.2 14 342.5 26.7
2003-01-08 08:58:39 51°28.669 2°47.383 350 14.2 341.6 26.4
2003-01-08 08:58:43 51°28.684 2°47.375 350.2 14.2 341.7 25.9
2003-01-08 08:58:49 51°28.707 2°47.364 350.2 14.1 342.3 25.2
2003-01-08 08:58:53 51°28.722 2°47.355 350.5 14.1 342 25.6
2003-01-08 08:58:59 51°28.744 2°47.344 350.3 14.2 342.6 25.7
2003-01-08 08:59:03 51°28.759 2°47.336 349.7 14.2 342.1 25.5
2003-01-08 08:59:09 51°28.782 2°47.325 350.7 14.2 342 24.7
2003-01-08 08:59:19 51°28.821 2°47.304 350 14.3 342.1 25.3
2003-01-08 08:59:23 51°28.836 2°47.296 349.2 14.3 342 24.7
2003-01-08 08:59:29 51°28.859 2°47.284 350.5 14.4 342.2 25.4
2003-01-08 08:59:35 51°28.882 2°47.272 349.8 14.4 341.9 25.7
2003-01-08 08:59:39 51°28.897 2°47.264 349.3 14.4 341.7 26.2
2003-01-08 08:59:43 51°28.912 2°47.257 351 14.4 342.7 25.9
2003-01-08 08:59:49 51°28.935 2°47.244 348.2 14.3 341.9 25.3
2003-01-08 08:59:55 51°28.958 2°47.234 351.2 14.3 342.4 25.6
2003-01-08 08:59:59 51°28.972 2°47.226 349.2 14.3 342.4 25.5
2003-01-08 09:00:03 51°28.987 2°47.217 350 14.2 342.2 25.4
2003-01-08 09:00:09 51°29.01 2°47.207 350.5 14.2 342.4 24.8
2003-01-08 09:00:13 51°29.025 2°47.199 350.2 14.3 342.1 24.4
2003-01-08 09:00:19 51°29.047 2°47.187 349.2 14.3 341.7 24.3
2003-01-08 09:00:23 51°29.062 2°47.179 350.7 14.4 342 24.8
2003-01-08 09:00:29 51°29.085 2°47.166 347.3 14.3 341.1 24.3
2003-01-08 09:00:35 51°29.108 2°47.155 350.8 14.4 341.3 21.9
2003-01-08 09:00:39 51°29.122 2°47.146 348.3 14.3 341.5 23.3
2003-01-08 09:00:43 51°29.137 2°47.138 350.3 14.3 341.5 24.1
2003-01-08 09:00:49 51°29.16 2°47.127 350.3 14.3 342.2 24.3
2003-01-08 09:00:53 51°29.175 2°47.118 349.2 14.3 342 24.1
2003-01-08 09:00:59 51°29.198 2°47.107 350.3 14.4 342.1 23.3
2003-01-08 09:01:04 51°29.217 2°47.097 351.5 14.3 342.5 23.2
2003-01-08 09:01:09 51°29.236 2°47.087 349.3 14.3 342.3 22.6
2003-01-08 09:01:15 51°29.259 2°47.075 350.2 14.3 341.6 21.8
2003-01-08 09:01:19 51°29.274 2°47.068 350.5 14.3 342.7 19.9
2003-01-08 09:01:23 51°29.289 2°47.059 350 14.3 341.8 20.6
2003-01-08 09:01:29 51°29.311 2°47.049 350.5 14.3 342.8 23.4
2003-01-08 09:01:35 51°29.334 2°47.037 349.8 14.3 341.7 24.3
2003-01-08 09:01:39 51°29.349 2°47.03 351.5 14.4 343.1 24
2003-01-08 09:01:43 51°29.364 2°47.02 349 14.4 341.9 22.6
2003-01-08 09:01:49 51°29.387 2°47.011 351.2 14.3 343.6 22.9
2003-01-08 09:01:55 51°29.41 2°46.999 350.2 14.3 342.7 22.6
2003-01-08 09:01:59 51°29.425 2°46.992 350.5 14.3 343.1 22.5
2003-01-08 09:02:04 51°29.444 2°46.982 351 14.4 342.5 22.1
2003-01-08 09:02:09 51°29.463 2°46.972 350.2 14.3 342.8 20.1
2003-01-08 09:02:15 51°29.486 2°46.96 349.3 14.2 341.5 21.1
2003-01-08 09:02:19 51°29.501 2°46.952 350.3 14.2 342.2 22.5
2003-01-08 09:02:23 51°29.516 2°46.945 349.7 14.2 342.2 23.5
2003-01-08 09:02:29 51°29.538 2°46.934 350.3 14.3 342.4 23.6
2003-01-08 09:02:35 51°29.561 2°46.922 350.2 14.4 342.2 21.9
2003-01-08 09:02:39 51°29.576 2°46.915 350.3 14.3 342.7 22.3
2003-01-08 09:02:43 51°29.592 2°46.907 350.5 14.3 342.6 23.5
2003-01-08 09:02:49 51°29.615 2°46.896 351 14.3 343 23.9
2003-01-08 09:02:53 51°29.63 2°46.887 349.8 14.3 341.8 22.9
2003-01-08 09:02:59 51°29.652 2°46.877 351.8 14.3 342.8 19.6
2003-01-08 09:03:03 51°29.667 2°46.867 347.7 14.2 340.7 23.4
2003-01-08 09:03:09 51°29.689 2°46.857 351 14.2 342.6 24.5
2003-01-08 09:03:15 51°29.711 2°46.844 348.8 14.3 341.3 23.5
2003-01-08 09:03:19 51°29.727 2°46.84 352.7 14.3 344.4 23.5
2003-01-08 09:03:23 51°29.741 2°46.829 347.2 14.3 341.1 22.9
2003-01-08 09:03:29 51°29.764 2°46.819 351 14.3 342.3 22.2
2003-01-08 09:03:35 51°29.787 2°46.804 347.5 14.3 340.9 20.6
2003-01-08 09:03:39 51°29.802 2°46.798 349.8 14.3 342 22.2
2003-01-08 09:03:43 51°29.817 2°46.789 347.3 14.3 340.6 22.1
2003-01-08 09:03:49 51°29.84 2°46.778 350.5 14.4 342.1 21.3
2003-01-08 09:03:55 51°29.862 2°46.764 348.7 14.4 340.9 20.9
2003-01-08 09:03:59 51°29.877 2°46.757 350 14.3 342.3 19
2003-01-08 09:04:03 51°29.892 2°46.747 348.3 14.4 340.5 21.4
2003-01-08 09:04:09 51°29.915 2°46.738 351 14.3 342.8 23.5
2003-01-08 09:04:13 51°29.93 2°46.729 349.3 14.1 342 24.2
2003-01-08 09:04:19 51°29.953 2°46.717 350.7 14.3 342.5 24.2
2003-01-08 09:04:23 51°29.968 2°46.71 351 14.3 343.4 24.3
2003-01-08 09:04:29 51°29.991 2°46.697 348.8 14.4 341.7 24.4
2003-01-08 09:04:35 51°30.014 2°46.688 352 14.4 343.8 23.9
2003-01-08 09:04:39 51°30.029 2°46.679 349.2 14.4 342.4 23.7
2003-01-08 09:04:43 51°30.045 2°46.671 351.2 14.4 342.9 23
2003-01-08 09:04:49 51°30.067 2°46.66 349 14.3 342.3 22.9
2003-01-08 09:04:53 51°30.082 2°46.652 350.7 14.3 342 22.2
2003-01-08 09:04:59 51°30.105 2°46.639 348.2 14.2 341.6 20.7
2003-01-08 09:05:04 51°30.124 2°46.629 349.3 14.3 340.7 20.6
2003-01-08 09:05:09 51°30.142 2°46.619 348.7 14.3 341.2 22.4
2003-01-08 09:05:15 51°30.165 2°46.607 350 14.4 341.8 23.6